createdAt,value
2023-02-26T00:01:16.701Z,4.65
2023-02-26T00:06:19.874Z,4.32
2023-02-26T00:11:22.705Z,4.60
2023-02-26T00:16:35.200Z,4.38
2023-02-26T00:21:37.810Z,4.00
2023-02-26T00:26:40.079Z,4.43
2023-02-26T00:31:42.658Z,4.75
2023-02-26T00:36:48.440Z,4.38
2023-02-26T00:41:50.857Z,3.92
2023-02-26T00:47:08.585Z,3.97
2023-02-26T00:52:19.202Z,4.38
2023-02-26T01:02:23.590Z,3.65
2023-02-26T01:07:28.084Z,3.47
2023-02-26T01:12:30.607Z,3.50
2023-02-26T01:17:51.536Z,4.13
2023-02-26T01:23:11.805Z,3.33
2023-02-26T01:28:14.470Z,3.60
2023-02-26T01:33:25.743Z,3.63
2023-02-26T01:43:54.167Z,3.70
2023-02-26T01:48:57.699Z,3.85
2023-02-26T01:54:00.180Z,3.53
2023-02-26T01:59:05.932Z,3.35
2023-02-26T02:04:12.882Z,3.85
2023-02-26T02:09:15.080Z,3.05
2023-02-26T02:14:38.385Z,2.92
2023-02-26T02:20:06.235Z,2.30
2023-02-26T02:25:08.493Z,2.00
2023-02-26T02:30:36.912Z,2.40
2023-02-26T02:35:44.268Z,2.53
2023-02-26T02:40:54.841Z,2.00
2023-02-26T02:46:23.562Z,1.35
2023-02-26T02:51:41.159Z,2.00
2023-02-26T02:56:56.368Z,1.38
2023-02-26T03:02:11.726Z,1.67
2023-02-26T03:07:14.177Z,1.73
2023-02-26T03:12:16.263Z,1.55
2023-02-26T03:18:01.986Z,1.35
2023-02-26T03:23:12.160Z,1.50
2023-02-26T03:28:48.445Z,1.63
2023-02-26T03:33:59.555Z,2.28
2023-02-26T03:39:08.393Z,1.48
2023-02-26T03:44:39.046Z,1.17
2023-02-26T03:49:45.880Z,1.60
2023-02-26T03:55:02.134Z,1.45
2023-02-26T04:00:31.647Z,1.42
2023-02-26T04:05:39.370Z,1.27
2023-02-26T04:10:45.427Z,1.20
2023-02-26T04:15:48.318Z,1.00
2023-02-26T04:20:50.448Z,1.65
2023-02-26T04:25:52.634Z,1.00
2023-02-26T04:30:54.942Z,1.27
2023-02-26T04:35:57.687Z,1.25
2023-02-26T04:41:00.011Z,1.17
2023-02-26T04:46:02.312Z,1.30
2023-02-26T04:51:06.058Z,1.30
2023-02-26T04:56:09.248Z,1.00
2023-02-26T05:01:13.603Z,1.23
2023-02-26T05:06:15.799Z,1.17
2023-02-26T05:11:17.861Z,1.10
2023-02-26T05:16:20.025Z,1.20
2023-02-26T05:21:24.588Z,1.25
2023-02-26T05:26:28.400Z,1.80
2023-02-26T05:31:30.612Z,1.65
2023-02-26T05:36:33.276Z,1.20
2023-02-26T05:41:35.358Z,1.30
2023-02-26T05:46:37.489Z,1.30
2023-02-26T05:51:39.718Z,0.88
2023-02-26T05:56:41.775Z,1.17
2023-02-26T06:01:44.090Z,1.25
2023-02-26T06:06:46.183Z,0.80
2023-02-26T06:11:48.311Z,1.30
2023-02-26T06:16:50.488Z,1.15
2023-02-26T06:21:52.537Z,1.08
2023-02-26T06:26:54.786Z,1.80
2023-02-26T06:31:56.862Z,1.05
2023-02-26T06:36:58.977Z,1.13
2023-02-26T06:42:01.078Z,1.30
2023-02-26T06:47:03.328Z,1.23
2023-02-26T06:52:05.365Z,1.13
2023-02-26T06:57:07.435Z,1.13
2023-02-26T07:02:17.074Z,1.00
2023-02-26T07:07:19.462Z,1.20
2023-02-26T07:12:21.492Z,0.90
2023-02-26T07:17:23.572Z,1.30
2023-02-26T07:22:25.764Z,1.27
2023-02-26T07:27:29.885Z,1.00
2023-02-26T07:32:32.320Z,0.95
2023-02-26T07:37:34.524Z,1.08
2023-02-26T07:42:36.860Z,1.00
2023-02-26T07:47:38.954Z,0.95
2023-02-26T07:52:41.735Z,1.38
2023-02-26T07:57:43.883Z,0.80
2023-02-26T08:02:46.004Z,1.17
2023-02-26T08:07:48.009Z,0.80
2023-02-26T08:12:50.061Z,1.38
2023-02-26T08:17:53.591Z,1.52
2023-02-26T08:22:55.682Z,1.20
2023-02-26T08:27:58.578Z,1.38
2023-02-26T08:33:01.061Z,1.10
2023-02-26T08:38:03.136Z,1.25
2023-02-26T08:43:05.149Z,1.35
2023-02-26T08:48:08.127Z,1.27
2023-02-26T08:53:11.366Z,1.05
2023-02-26T08:58:13.723Z,1.40
2023-02-26T09:03:16.177Z,1.75
2023-02-26T09:08:20.533Z,0.82
2023-02-26T09:13:22.778Z,0.88
2023-02-26T09:18:24.984Z,1.00
2023-02-26T09:23:27.294Z,0.90
2023-02-26T09:28:29.494Z,1.30
2023-02-26T09:33:31.561Z,0.82
2023-02-26T09:38:35.821Z,0.98
2023-02-26T09:44:04.358Z,0.75
2023-02-26T09:49:27.117Z,1.08
2023-02-26T09:54:33.924Z,1.52
2023-02-26T09:59:36.415Z,0.93
2023-02-26T10:04:55.308Z,1.05
2023-02-26T10:10:11.329Z,0.77
2023-02-26T10:15:32.014Z,1.00
2023-02-26T10:20:56.024Z,0.90
2023-02-26T10:26:16.629Z,0.95
2023-02-26T10:31:18.843Z,0.80
2023-02-26T10:36:38.700Z,0.80
2023-02-26T10:41:41.645Z,0.90
2023-02-26T10:46:52.888Z,0.90
2023-02-26T10:51:57.531Z,0.93
2023-02-26T10:56:59.677Z,0.77
2023-02-26T11:02:02.010Z,0.40
2023-02-26T11:07:06.147Z,0.70
2023-02-26T11:12:11.330Z,0.90
2023-02-26T11:17:27.921Z,0.80
2023-02-26T11:22:33.707Z,0.80
2023-02-26T11:27:38.321Z,0.50
2023-02-26T11:32:40.438Z,0.68
2023-02-26T11:37:48.730Z,0.70
2023-02-26T11:42:55.037Z,0.70
2023-02-26T11:48:05.087Z,0.77
2023-02-26T11:53:16.822Z,1.08
2023-02-26T11:58:23.749Z,0.85
2023-02-26T12:03:34.443Z,1.00
2023-02-26T12:08:38.774Z,0.80
2023-02-26T12:14:03.102Z,0.90
2023-02-26T12:19:36.624Z,0.88
2023-02-26T12:24:50.533Z,0.90
2023-02-26T12:30:29.770Z,0.80
2023-02-26T12:35:37.714Z,0.90
2023-02-26T12:40:56.342Z,0.70
2023-02-26T12:46:19.360Z,0.90
2023-02-26T12:51:27.897Z,0.80
2023-02-26T12:56:51.360Z,0.80
2023-02-26T13:02:11.709Z,0.52
2023-02-26T13:07:35.025Z,0.82
2023-02-26T13:12:43.571Z,0.80
2023-02-26T13:17:48.216Z,0.90
2023-02-26T13:22:55.451Z,0.68
2023-02-26T13:28:01.015Z,0.90
2023-02-26T13:33:04.396Z,0.80
2023-02-26T13:38:25.171Z,0.85
2023-02-26T13:43:46.710Z,0.60
2023-02-26T13:48:57.904Z,0.63
2023-02-26T13:54:05.439Z,0.98
2023-02-26T13:59:13.528Z,0.73
2023-02-26T14:04:19.043Z,0.80
2023-02-26T14:09:23.854Z,0.77
2023-02-26T14:15:04.955Z,0.68
2023-02-26T14:20:09.668Z,0.53
2023-02-26T14:25:34.959Z,0.60
2023-02-26T14:30:47.156Z,0.90
2023-02-26T14:35:51.886Z,0.70
2023-02-26T14:41:04.798Z,0.70
2023-02-26T14:46:09.330Z,0.80
2023-02-26T14:51:32.497Z,0.60
2023-02-26T14:56:53.310Z,0.70
2023-02-26T15:02:09.852Z,0.60
2023-02-26T15:07:30.865Z,0.60
2023-02-26T15:12:40.140Z,1.83
2023-02-26T15:18:00.681Z,0.68
2023-02-26T15:23:27.153Z,0.57
2023-02-26T15:28:32.985Z,0.70
2023-02-26T15:33:35.449Z,0.60
2023-02-26T15:38:42.885Z,0.70
2023-02-26T15:43:50.940Z,0.40
2023-02-26T15:48:59.505Z,0.60
2023-02-26T15:54:06.116Z,0.93
2023-02-26T15:59:17.149Z,0.93
2023-02-26T16:09:27.981Z,1.23
2023-02-26T16:14:35.495Z,1.40
2023-02-26T16:19:43.637Z,0.80
2023-02-26T16:24:51.011Z,0.95
2023-02-26T16:29:57.061Z,0.73
2023-02-26T16:35:11.457Z,1.00
2023-02-26T16:40:25.774Z,0.90
2023-02-26T16:45:36.684Z,1.10
2023-02-26T16:50:38.792Z,1.10
2023-02-26T16:55:42.537Z,0.80
2023-02-26T17:00:46.763Z,0.95
2023-02-26T17:06:06.595Z,0.85
2023-02-26T17:11:18.092Z,1.40
2023-02-26T17:16:22.594Z,1.60
2023-02-26T17:21:25.151Z,1.20
2023-02-26T17:26:27.565Z,1.77
2023-02-26T17:31:29.817Z,1.48
2023-02-26T17:36:31.971Z,2.70
2023-02-26T17:41:34.290Z,1.35
2023-02-26T17:46:36.329Z,1.00
2023-02-26T17:51:38.476Z,2.05
2023-02-26T17:56:42.174Z,2.53
2023-02-26T18:01:44.354Z,2.10
2023-02-26T18:06:46.620Z,1.83
2023-02-26T18:11:49.065Z,1.10
2023-02-26T18:16:51.377Z,1.50
2023-02-26T18:21:53.530Z,1.75
2023-02-26T18:26:55.546Z,2.25
2023-02-26T18:32:00.653Z,1.50
2023-02-26T18:37:04.443Z,2.15
2023-02-26T18:42:06.688Z,1.63
2023-02-26T18:47:10.264Z,1.90
2023-02-26T18:52:12.907Z,1.40
2023-02-26T18:57:15.274Z,1.45
2023-02-26T19:02:17.404Z,1.50
2023-02-26T19:07:19.670Z,1.95
2023-02-26T19:12:23.168Z,1.45
2023-02-26T19:17:25.268Z,1.52
2023-02-26T19:22:27.373Z,1.40
2023-02-26T19:27:29.410Z,1.98
2023-02-26T19:32:31.915Z,1.52
2023-02-26T19:37:34.104Z,2.13
2023-02-26T19:42:36.436Z,2.53
2023-02-26T19:47:38.750Z,2.13
2023-02-26T19:52:41.167Z,2.28
2023-02-26T19:57:43.431Z,1.85
2023-02-26T20:02:45.845Z,2.00
2023-02-26T20:07:48.207Z,1.70
2023-02-26T20:12:50.365Z,1.42
2023-02-26T20:17:52.376Z,1.90
2023-02-26T20:22:54.807Z,1.42
2023-02-26T20:27:57.016Z,1.38
2023-02-26T20:32:59.177Z,2.00
2023-02-26T20:38:02.040Z,1.80
2023-02-26T20:43:04.382Z,3.22
2023-02-26T20:48:07.573Z,3.20
2023-02-26T20:53:09.810Z,3.00
2023-02-26T20:58:11.851Z,3.60
2023-02-26T21:03:13.941Z,3.03
2023-02-26T21:08:15.959Z,2.33
2023-02-26T21:13:18.420Z,1.95
2023-02-26T21:18:20.514Z,2.20
2023-02-26T21:23:22.604Z,2.08
2023-02-26T21:28:25.096Z,2.88
2023-02-26T21:33:27.177Z,3.00
2023-02-26T21:38:29.208Z,2.63
2023-02-26T21:43:31.337Z,2.33
2023-02-26T21:48:33.404Z,2.80
2023-02-26T21:53:35.370Z,2.47
2023-02-26T21:58:37.350Z,2.42
2023-02-26T22:03:39.792Z,2.40
2023-02-26T22:08:41.942Z,2.70
2023-02-26T22:13:44.078Z,2.60
2023-02-26T22:18:46.115Z,2.28
2023-02-26T22:23:48.113Z,2.58
2023-02-26T22:28:50.154Z,2.58
2023-02-26T22:33:52.326Z,2.00
2023-02-26T22:38:54.572Z,2.10
2023-02-26T22:43:56.758Z,2.25
2023-02-26T22:48:59.001Z,2.08
2023-02-26T22:54:01.614Z,2.25
2023-02-26T22:59:03.719Z,1.85
2023-02-26T23:04:05.802Z,1.73
2023-02-26T23:09:07.969Z,1.63
2023-02-26T23:14:10.138Z,1.80
2023-02-26T23:19:12.517Z,1.40
2023-02-26T23:24:14.692Z,1.73
2023-02-26T23:29:16.773Z,1.63
2023-02-26T23:34:19.051Z,1.75
2023-02-26T23:39:21.186Z,1.52
2023-02-26T23:44:23.605Z,1.42
2023-02-26T23:49:25.662Z,1.60
2023-02-26T23:54:27.716Z,1.65
2023-02-26T23:59:29.806Z,1.58
